createdAt,value
2018-11-28T00:01:52.975Z,33.60
2018-11-28T00:04:21.092Z,27.00
2018-11-28T00:06:49.227Z,31.33
2018-11-28T00:09:17.386Z,35.40
2018-11-28T00:11:45.549Z,37.07
2018-11-28T00:14:13.712Z,32.83
2018-11-28T00:16:41.998Z,29.90
2018-11-28T00:19:10.093Z,38.20
2018-11-28T00:21:38.208Z,30.63
2018-11-28T00:24:06.346Z,38.20
2018-11-28T00:26:34.487Z,40.23
2018-11-28T00:29:02.725Z,37.03
2018-11-28T00:31:30.867Z,37.13
2018-11-28T00:33:58.978Z,34.80
2018-11-28T00:36:27.165Z,35.07
2018-11-28T00:38:55.292Z,33.80
2018-11-28T00:41:23.409Z,27.80
2018-11-28T00:43:51.600Z,40.10
2018-11-28T00:46:19.733Z,37.07
2018-11-28T00:48:47.847Z,28.53
2018-11-28T00:51:15.932Z,37.80
2018-11-28T00:53:44.070Z,35.03
2018-11-28T00:56:12.338Z,39.40
2018-11-28T00:58:40.483Z,30.60
2018-11-28T01:01:08.632Z,35.87
2018-11-28T01:03:36.849Z,41.57
2018-11-28T01:06:05.036Z,42.17
2018-11-28T01:08:33.167Z,43.77
2018-11-28T01:11:01.333Z,23.33
2018-11-28T01:13:29.409Z,39.40
2018-11-28T01:15:57.564Z,28.40
2018-11-28T01:18:25.667Z,41.97
2018-11-28T01:20:53.837Z,42.63
2018-11-28T01:23:22.041Z,42.90
2018-11-28T01:25:50.181Z,41.43
2018-11-28T01:28:18.296Z,38.67
2018-11-28T01:30:46.432Z,38.50
2018-11-28T01:33:14.556Z,43.30
2018-11-28T01:35:42.667Z,41.13
2018-11-28T01:38:10.817Z,34.77
2018-11-28T01:40:38.937Z,40.67
2018-11-28T01:43:07.282Z,46.00
2018-11-28T01:45:35.371Z,41.37
2018-11-28T01:48:03.890Z,45.00
2018-11-28T01:50:31.994Z,37.17
2018-11-28T01:53:00.091Z,33.57
2018-11-28T01:55:28.349Z,47.20
2018-11-28T01:57:56.582Z,41.93
2018-11-28T02:00:24.995Z,40.77
2018-11-28T02:03:02.057Z,44.80
2018-11-28T02:05:30.149Z,42.80
2018-11-28T02:07:58.462Z,36.47
2018-11-28T02:10:26.588Z,37.73
2018-11-28T02:12:55.064Z,44.70
2018-11-28T02:15:23.730Z,47.27
2018-11-28T02:17:52.016Z,40.60
2018-11-28T02:20:20.264Z,38.87
2018-11-28T02:22:48.438Z,39.87
2018-11-28T02:25:17.458Z,40.90
2018-11-28T02:27:46.394Z,41.20
2018-11-28T02:30:16.584Z,43.27
2018-11-28T02:32:45.338Z,44.13
2018-11-28T02:35:14.554Z,24.07
2018-11-28T02:37:43.032Z,42.23
2018-11-28T02:40:13.237Z,39.17
2018-11-28T02:42:41.566Z,44.03
2018-11-28T02:45:15.014Z,39.50
2018-11-28T02:47:43.297Z,33.70
2018-11-28T02:50:11.488Z,37.60
2018-11-28T02:52:39.642Z,32.33
2018-11-28T02:55:09.918Z,43.30
2018-11-28T02:57:38.414Z,35.47
2018-11-28T03:00:18.347Z,45.23
2018-11-28T03:02:46.556Z,49.47
2018-11-28T03:05:14.918Z,35.80
2018-11-28T03:07:43.172Z,41.00
2018-11-28T03:10:12.991Z,32.07
2018-11-28T03:12:41.372Z,41.87
2018-11-28T03:15:17.459Z,37.17
2018-11-28T03:17:45.628Z,41.13
2018-11-28T03:20:13.720Z,46.13
2018-11-28T03:22:41.990Z,41.23
2018-11-28T03:25:10.788Z,40.37
2018-11-28T03:27:38.890Z,44.43
2018-11-28T03:30:11.141Z,43.37
2018-11-28T03:32:39.295Z,41.80
2018-11-28T03:35:09.208Z,39.57
2018-11-28T03:37:37.347Z,36.30
2018-11-28T03:40:06.020Z,32.27
2018-11-28T03:42:34.402Z,32.60
2018-11-28T03:45:02.970Z,29.63
2018-11-28T03:47:31.109Z,42.03
2018-11-28T03:49:59.193Z,29.23
2018-11-28T03:52:27.322Z,42.43
2018-11-28T03:54:55.426Z,36.83
2018-11-28T03:57:23.772Z,30.03
2018-11-28T03:59:51.912Z,38.07
2018-11-28T04:02:20.050Z,34.70
2018-11-28T04:04:48.192Z,32.93
2018-11-28T04:07:16.459Z,34.60
2018-11-28T04:09:44.554Z,38.40
2018-11-28T04:12:12.788Z,35.07
2018-11-28T04:14:40.974Z,36.50
2018-11-28T04:17:09.131Z,40.03
2018-11-28T04:19:37.265Z,38.20
2018-11-28T04:22:05.954Z,38.07
2018-11-28T04:24:34.056Z,38.77
2018-11-28T04:27:02.177Z,43.17
2018-11-28T04:29:30.289Z,38.07
2018-11-28T04:31:58.489Z,34.17
2018-11-28T04:34:26.660Z,36.70
2018-11-28T04:36:54.735Z,31.73
2018-11-28T04:39:22.929Z,41.80
2018-11-28T04:41:51.042Z,35.97
2018-11-28T04:44:19.178Z,35.70
2018-11-28T04:46:47.322Z,39.80
2018-11-28T04:49:15.417Z,35.17
2018-11-28T04:51:43.517Z,35.47
2018-11-28T04:54:11.735Z,38.27
2018-11-28T04:56:39.845Z,40.90
2018-11-28T04:59:08.090Z,36.47
2018-11-28T05:01:36.207Z,39.03
2018-11-28T05:04:04.641Z,35.50
2018-11-28T05:07:40.303Z,28.20
2018-11-28T05:10:09.734Z,33.70
2018-11-28T05:12:37.863Z,37.23
2018-11-28T05:16:38.523Z,31.47
2018-11-28T05:19:06.630Z,46.00
2018-11-28T05:21:34.813Z,33.67
2018-11-28T05:24:02.926Z,42.63
2018-11-28T05:26:31.108Z,31.67
2018-11-28T05:28:59.241Z,39.03
2018-11-28T05:31:27.410Z,37.13
2018-11-28T05:33:55.650Z,34.50
2018-11-28T05:36:23.819Z,38.57
2018-11-28T05:38:51.990Z,38.63
2018-11-28T05:41:20.080Z,33.60
2018-11-28T05:43:48.265Z,39.40
2018-11-28T05:46:16.390Z,36.13
2018-11-28T05:48:44.647Z,41.87
2018-11-28T05:51:12.853Z,38.80
2018-11-28T05:53:41.126Z,29.93
2018-11-28T05:56:09.950Z,45.90
2018-11-28T05:58:38.148Z,37.33
2018-11-28T06:01:06.449Z,35.60
2018-11-28T06:03:35.099Z,41.50
2018-11-28T06:06:03.248Z,37.37
2018-11-28T06:08:31.529Z,42.37
2018-11-28T06:10:59.603Z,34.83
2018-11-28T06:13:27.939Z,32.73
2018-11-28T06:15:56.187Z,30.40
2018-11-28T06:18:24.596Z,36.53
2018-11-28T06:20:52.829Z,41.33
2018-11-28T06:23:20.996Z,44.63
2018-11-28T06:25:49.243Z,40.27
2018-11-28T06:28:17.456Z,35.13
2018-11-28T06:30:45.891Z,26.27
2018-11-28T06:33:14.118Z,27.03
2018-11-28T06:35:42.372Z,35.20
2018-11-28T06:38:10.716Z,31.80
2018-11-28T06:40:38.826Z,33.17
2018-11-28T06:43:07.071Z,46.37
2018-11-28T06:45:35.432Z,32.53
2018-11-28T06:48:03.750Z,29.63
2018-11-28T06:50:31.860Z,40.37
2018-11-28T06:53:01.125Z,43.13
2018-11-28T06:55:29.297Z,33.37
2018-11-28T06:57:57.419Z,40.00
2018-11-28T07:00:25.533Z,45.80
2018-11-28T07:02:53.891Z,40.57
2018-11-28T07:05:22.555Z,49.07
2018-11-28T07:07:51.395Z,32.27
2018-11-28T07:10:20.561Z,48.10
2018-11-28T07:12:48.751Z,38.53
2018-11-28T07:15:18.271Z,32.47
2018-11-28T07:17:46.372Z,30.63
2018-11-28T07:20:15.421Z,36.57
2018-11-28T07:22:43.522Z,42.33
2018-11-28T07:25:15.580Z,36.50
2018-11-28T07:27:45.397Z,39.23
2018-11-28T07:30:15.011Z,32.53
2018-11-28T07:32:43.341Z,34.47
2018-11-28T07:35:12.240Z,33.13
2018-11-28T07:37:40.397Z,34.60
2018-11-28T07:40:14.631Z,32.27
2018-11-28T07:42:45.674Z,35.07
2018-11-28T07:45:13.827Z,40.83
2018-11-28T07:47:42.038Z,28.33
2018-11-28T07:50:10.369Z,31.03
2018-11-28T07:52:38.557Z,36.43
2018-11-28T07:55:08.975Z,37.40
2018-11-28T07:57:37.119Z,29.90
2018-11-28T08:00:09.623Z,32.30
2018-11-28T08:02:37.755Z,43.50
2018-11-28T08:05:07.003Z,35.57
2018-11-28T08:07:35.163Z,38.47
2018-11-28T08:10:03.362Z,34.77
2018-11-28T08:12:31.477Z,38.67
2018-11-28T08:14:59.582Z,39.47
2018-11-28T08:17:27.718Z,32.93
2018-11-28T08:19:55.815Z,36.70
2018-11-28T08:22:23.925Z,39.13
2018-11-28T08:24:52.037Z,25.30
2018-11-28T08:27:20.211Z,38.27
2018-11-28T08:29:48.316Z,34.53
2018-11-28T08:32:16.511Z,42.80
2018-11-28T08:34:44.653Z,37.57
2018-11-28T08:37:12.818Z,34.83
2018-11-28T08:39:41.003Z,40.70
2018-11-28T08:42:09.075Z,39.80
2018-11-28T08:44:37.191Z,30.27
2018-11-28T08:47:05.635Z,39.17
2018-11-28T08:49:33.752Z,37.23
2018-11-28T08:52:01.889Z,30.90
2018-11-28T08:54:30.043Z,31.40
2018-11-28T08:56:59.385Z,41.93
2018-11-28T08:59:26.489Z,36.00
2018-11-28T09:01:55.538Z,35.20
2018-11-28T09:04:23.719Z,28.13
2018-11-28T09:06:51.839Z,38.27
2018-11-28T09:09:20.930Z,33.97
2018-11-28T09:11:49.178Z,46.90
2018-11-28T09:14:17.305Z,40.50
2018-11-28T09:16:45.515Z,34.93
2018-11-28T09:19:13.635Z,41.27
2018-11-28T09:21:41.838Z,28.07
2018-11-28T09:24:10.031Z,35.73
2018-11-28T09:26:38.131Z,39.27
2018-11-28T09:29:06.345Z,32.53
2018-11-28T09:31:34.574Z,34.23
2018-11-28T09:34:02.987Z,36.73
2018-11-28T09:36:31.095Z,28.10
2018-11-28T09:38:59.263Z,30.60
2018-11-28T09:41:27.403Z,35.57
2018-11-28T09:43:55.471Z,40.60
2018-11-28T09:46:23.596Z,26.13
2018-11-28T09:48:51.720Z,40.13
2018-11-28T09:51:19.871Z,32.87
2018-11-28T09:53:48.000Z,29.40
2018-11-28T09:56:16.140Z,27.10
2018-11-28T09:58:44.264Z,31.10
2018-11-28T10:01:12.415Z,31.97
2018-11-28T10:03:40.581Z,37.27
2018-11-28T10:06:08.832Z,41.30
2018-11-28T10:08:37.089Z,32.73
2018-11-28T10:11:05.459Z,30.23
2018-11-28T10:13:33.588Z,37.43
2018-11-28T10:16:01.936Z,37.30
2018-11-28T10:18:30.413Z,38.87
2018-11-28T10:20:58.567Z,36.77
2018-11-28T10:23:26.714Z,32.60
2018-11-28T10:25:54.841Z,29.90
2018-11-28T10:28:22.929Z,37.70
2018-11-28T10:30:51.021Z,37.87
2018-11-28T10:33:19.131Z,35.43
2018-11-28T10:35:47.264Z,48.70
2018-11-28T10:38:15.376Z,36.27
2018-11-28T10:40:43.480Z,35.33
2018-11-28T10:43:11.653Z,30.60
2018-11-28T10:45:39.869Z,35.40
2018-11-28T10:48:10.473Z,34.87
2018-11-28T10:50:38.606Z,32.17
2018-11-28T10:53:07.052Z,33.20
2018-11-28T10:55:35.189Z,36.87
2018-11-28T10:58:03.812Z,36.07
2018-11-28T11:00:31.909Z,30.57
2018-11-28T11:03:00.254Z,34.13
2018-11-28T11:05:28.437Z,35.60
2018-11-28T11:07:56.599Z,27.40
2018-11-28T11:10:24.803Z,34.07
2018-11-28T11:12:52.914Z,31.53
2018-11-28T11:15:21.082Z,31.00
2018-11-28T11:17:49.303Z,37.63
2018-11-28T11:20:17.409Z,26.03
2018-11-28T11:22:45.612Z,28.73
2018-11-28T11:25:13.744Z,33.87
2018-11-28T11:27:41.927Z,29.53
2018-11-28T11:30:10.438Z,29.87
2018-11-28T11:32:38.641Z,34.63
2018-11-28T11:35:08.231Z,35.30
2018-11-28T11:37:36.430Z,34.87
2018-11-28T11:40:08.286Z,29.97
2018-11-28T11:42:36.478Z,26.60
2018-11-28T11:45:05.870Z,31.57
2018-11-28T11:47:33.955Z,32.23
2018-11-28T11:50:02.176Z,27.73
2018-11-28T11:52:30.364Z,29.67
2018-11-28T11:54:58.467Z,28.13
2018-11-28T11:57:26.703Z,35.10
2018-11-28T11:59:54.856Z,29.30
2018-11-28T12:02:23.065Z,30.67
2018-11-28T12:04:51.187Z,25.50
2018-11-28T12:07:19.308Z,32.70
2018-11-28T12:09:47.457Z,27.93
2018-11-28T12:12:15.618Z,22.13
2018-11-28T12:14:43.781Z,24.60
2018-11-28T12:17:11.898Z,21.27
2018-11-28T12:19:40.073Z,25.13
2018-11-28T12:22:08.286Z,22.80
2018-11-28T12:24:36.431Z,20.67
2018-11-28T12:27:05.088Z,28.13
2018-11-28T12:29:33.228Z,23.03
2018-11-28T12:32:01.402Z,24.50
2018-11-28T12:34:29.612Z,20.13
2018-11-28T12:36:57.763Z,26.33
2018-11-28T12:39:25.832Z,23.67
2018-11-28T12:41:53.954Z,19.63
2018-11-28T12:44:22.037Z,19.80
2018-11-28T12:46:50.511Z,23.30
2018-11-28T12:49:19.002Z,19.03
2018-11-28T12:51:53.790Z,27.87
2018-11-28T12:54:21.925Z,23.77
2018-11-28T12:56:50.049Z,23.83
2018-11-28T12:59:18.198Z,21.20
2018-11-28T13:01:46.309Z,17.93
2018-11-28T13:04:14.559Z,22.30
2018-11-28T13:06:43.306Z,21.73
2018-11-28T13:09:11.584Z,16.30
2018-11-28T13:11:40.900Z,21.23
2018-11-28T13:14:09.425Z,21.13
2018-11-28T13:16:37.742Z,19.80
2018-11-28T13:19:06.054Z,21.47
2018-11-28T13:21:34.277Z,22.37
2018-11-28T13:24:02.468Z,20.17
2018-11-28T13:26:30.586Z,20.87
2018-11-28T13:28:58.728Z,21.00
2018-11-28T13:31:26.856Z,16.43
2018-11-28T13:33:54.980Z,22.30
2018-11-28T13:36:23.156Z,21.73
2018-11-28T13:38:51.418Z,23.07
2018-11-28T13:41:19.570Z,18.60
2018-11-28T13:43:47.720Z,19.63
2018-11-28T13:46:15.952Z,18.67
2018-11-28T13:48:44.222Z,19.63
2018-11-28T13:51:12.351Z,19.83
2018-11-28T13:53:40.439Z,18.30
2018-11-28T13:58:36.846Z,17.77
2018-11-28T14:01:05.317Z,22.00
2018-11-28T14:03:33.572Z,19.77
2018-11-28T14:06:01.680Z,18.43
2018-11-28T14:08:29.895Z,18.00
2018-11-28T14:10:58.076Z,21.70
2018-11-28T14:13:26.208Z,20.40
2018-11-28T14:15:54.375Z,20.20
2018-11-28T14:19:25.639Z,16.57
2018-11-28T14:21:53.743Z,22.30
2018-11-28T14:24:23.259Z,18.93
2018-11-28T14:26:51.414Z,18.40
2018-11-28T14:29:19.644Z,19.27
2018-11-28T14:31:47.781Z,23.37
2018-11-28T14:34:16.029Z,17.50
2018-11-28T14:36:44.172Z,17.23
2018-11-28T14:39:12.384Z,20.77
2018-11-28T14:41:40.530Z,19.03
2018-11-28T14:44:08.669Z,17.93
2018-11-28T14:46:36.801Z,15.93
2018-11-28T14:49:04.967Z,25.57
2018-11-28T14:51:33.226Z,20.03
2018-11-28T14:54:02.372Z,16.50
2018-11-28T14:56:30.463Z,16.37
2018-11-28T14:58:58.591Z,16.43
2018-11-28T15:01:26.713Z,15.17
2018-11-28T15:03:55.414Z,16.97
2018-11-28T15:06:29.723Z,20.17
2018-11-28T15:08:57.872Z,18.20
2018-11-28T15:11:25.940Z,20.83
2018-11-28T15:13:54.225Z,21.50
2018-11-28T15:16:22.306Z,17.00
2018-11-28T15:18:50.538Z,22.47
2018-11-28T15:21:18.680Z,20.80
2018-11-28T15:23:46.866Z,17.90
2018-11-28T15:26:15.141Z,19.40
2018-11-28T15:28:43.421Z,23.33
2018-11-28T15:31:11.765Z,19.70
2018-11-28T15:33:39.860Z,18.13
2018-11-28T15:36:08.056Z,20.33
2018-11-28T15:38:36.589Z,19.60
2018-11-28T15:41:05.351Z,23.80
2018-11-28T15:43:33.646Z,22.33
2018-11-28T15:46:02.042Z,24.60
2018-11-28T15:48:30.215Z,23.43
2018-11-28T15:50:58.373Z,25.37
2018-11-28T15:53:26.651Z,22.33
2018-11-28T15:55:54.953Z,25.87
2018-11-28T15:58:23.094Z,20.27
2018-11-28T16:00:51.305Z,25.73
2018-11-28T16:03:19.499Z,24.53
2018-11-28T16:05:47.810Z,21.33
2018-11-28T16:08:15.895Z,18.30
2018-11-28T16:10:44.113Z,24.60
2018-11-28T16:13:15.013Z,23.23
2018-11-28T16:15:49.839Z,17.40
2018-11-28T16:18:18.055Z,24.97
2018-11-28T16:20:47.072Z,26.70
2018-11-28T16:23:15.371Z,24.07
2018-11-28T16:25:43.499Z,29.00
2018-11-28T16:28:12.545Z,24.87
2018-11-28T16:30:39.938Z,26.80
2018-11-28T16:33:08.247Z,20.73
2018-11-28T16:35:37.152Z,25.70
2018-11-28T16:38:05.994Z,25.90
2018-11-28T16:40:34.180Z,21.83
2018-11-28T16:43:02.392Z,25.37
2018-11-28T16:45:30.559Z,28.40
2018-11-28T16:47:58.716Z,33.27
2018-11-28T16:50:27.117Z,29.53
2018-11-28T16:52:55.386Z,32.03
2018-11-28T16:55:23.536Z,32.83
2018-11-28T16:57:52.843Z,28.97
2018-11-28T17:00:23.490Z,27.97
2018-11-28T17:02:52.685Z,29.60
2018-11-28T17:05:21.815Z,32.73
2018-11-28T17:07:50.469Z,30.57
2018-11-28T17:10:23.778Z,31.13
2018-11-28T17:12:52.507Z,35.50
2018-11-28T17:15:20.707Z,29.73
2018-11-28T17:17:48.906Z,31.83
2018-11-28T17:20:18.991Z,31.77
2018-11-28T17:22:47.908Z,29.00
2018-11-28T17:25:19.327Z,33.73
2018-11-28T17:27:47.464Z,34.93
2018-11-28T17:30:19.066Z,33.67
2018-11-28T17:35:10.224Z,35.33
2018-11-28T17:37:38.609Z,31.73
2018-11-28T17:40:09.930Z,32.07
2018-11-28T17:42:38.159Z,34.00
2018-11-28T17:45:09.966Z,33.30
2018-11-28T17:47:38.143Z,34.57
2018-11-28T17:50:11.337Z,33.30
2018-11-28T17:52:39.552Z,28.10
2018-11-28T17:55:10.325Z,31.97
2018-11-28T17:57:38.450Z,31.47
2018-11-28T18:00:10.576Z,30.03
2018-11-28T18:02:38.728Z,31.73
2018-11-28T18:05:08.185Z,32.70
2018-11-28T18:07:36.462Z,28.20
2018-11-28T18:10:08.989Z,26.93
2018-11-28T18:12:37.302Z,31.53
2018-11-28T18:15:07.495Z,29.80
2018-11-28T18:17:35.846Z,27.43
2018-11-28T18:20:04.230Z,30.07
2018-11-28T18:22:32.410Z,30.10
2018-11-28T18:25:00.528Z,28.67
2018-11-28T18:27:28.671Z,26.27
2018-11-28T18:29:56.907Z,33.13
2018-11-28T18:32:25.363Z,27.00
2018-11-28T18:34:53.689Z,23.87
2018-11-28T18:37:24.258Z,23.13
2018-11-28T18:39:50.125Z,35.20
2018-11-28T18:42:18.255Z,26.97
2018-11-28T18:44:46.773Z,26.23
2018-11-28T18:47:14.957Z,29.07
2018-11-28T18:49:43.224Z,25.50
2018-11-28T18:52:11.468Z,23.57
2018-11-28T18:54:39.643Z,22.63
2018-11-28T18:57:07.805Z,29.83
2018-11-28T18:59:36.063Z,21.87
2018-11-28T19:02:04.579Z,28.33
2018-11-28T19:04:32.853Z,23.40
2018-11-28T19:07:01.064Z,21.83
2018-11-28T19:09:29.450Z,27.80
2018-11-28T19:11:57.573Z,19.93
2018-11-28T19:14:26.047Z,25.03
2018-11-28T19:16:54.475Z,25.80
2018-11-28T19:19:22.646Z,25.70
2018-11-28T19:21:50.734Z,26.03
2018-11-28T19:24:18.957Z,24.60
2018-11-28T19:26:47.106Z,20.80
2018-11-28T19:29:15.318Z,16.63
2018-11-28T19:31:43.678Z,22.57
2018-11-28T19:34:18.055Z,24.57
2018-11-28T19:36:40.348Z,23.17
2018-11-28T19:39:09.333Z,17.47
2018-11-28T19:41:37.792Z,22.83
2018-11-28T19:46:40.933Z,26.90
2018-11-28T19:49:09.874Z,21.53
2018-11-28T19:51:38.105Z,26.20
2018-11-28T19:54:06.332Z,17.83
2018-11-28T19:56:38.563Z,23.67
2018-11-28T19:59:06.694Z,25.27
2018-11-28T20:01:34.977Z,20.93
2018-11-28T20:04:03.207Z,26.03
2018-11-28T20:06:31.352Z,24.57
2018-11-28T20:08:59.521Z,23.00
2018-11-28T20:11:27.639Z,22.30
2018-11-28T20:13:55.926Z,18.37
2018-11-28T20:16:24.061Z,21.23
2018-11-28T20:18:52.314Z,21.80
2018-11-28T20:21:20.475Z,21.30
2018-11-28T20:23:48.628Z,25.37
2018-11-28T20:26:16.918Z,16.93
2018-11-28T20:28:45.111Z,18.03
2018-11-28T20:31:13.239Z,23.00
2018-11-28T20:33:41.385Z,20.03
2018-11-28T20:36:09.580Z,24.90
2018-11-28T20:38:37.709Z,20.43
2018-11-28T20:41:06.005Z,18.73
2018-11-28T20:43:34.333Z,19.00
2018-11-28T20:46:02.562Z,22.47
2018-11-28T20:48:30.746Z,16.13
2018-11-28T20:50:59.428Z,15.33
2018-11-28T20:53:27.646Z,23.80
2018-11-28T20:55:55.865Z,23.37
2018-11-28T20:58:24.055Z,21.13
2018-11-28T21:00:52.250Z,20.83
2018-11-28T21:03:20.526Z,19.57
2018-11-28T21:05:48.695Z,17.80
2018-11-28T21:08:16.880Z,16.47
2018-11-28T21:10:45.005Z,16.93
2018-11-28T21:13:13.605Z,17.90
2018-11-28T21:15:43.135Z,15.80
2018-11-28T21:18:11.290Z,17.50
2018-11-28T21:20:40.764Z,19.57
2018-11-28T21:23:11.495Z,14.40
2018-11-28T21:25:39.650Z,17.63
2018-11-28T21:28:07.965Z,16.47
2018-11-28T21:30:36.756Z,15.60
2018-11-28T21:33:06.056Z,17.73
2018-11-28T21:35:35.689Z,17.37
2018-11-28T21:38:04.145Z,12.97
2018-11-28T21:40:32.718Z,13.40
2018-11-28T21:43:01.058Z,18.20
2018-11-28T21:45:29.215Z,17.00
2018-11-28T21:47:57.335Z,14.00
2018-11-28T21:50:25.525Z,19.80
2018-11-28T21:52:53.636Z,12.40
2018-11-28T21:55:23.521Z,14.33
2018-11-28T21:57:51.705Z,13.97
2018-11-28T22:00:23.048Z,14.33
2018-11-28T22:02:51.255Z,15.07
2018-11-28T22:05:19.392Z,15.17
2018-11-28T22:07:47.556Z,14.43
2018-11-28T22:10:18.487Z,17.13
2018-11-28T22:12:46.773Z,14.50
2018-11-28T22:15:15.759Z,15.47
2018-11-28T22:18:02.378Z,11.67
2018-11-28T22:20:30.714Z,11.83
2018-11-28T22:22:59.004Z,14.70
2018-11-28T22:25:27.233Z,10.07
2018-11-28T22:27:55.673Z,15.13
2018-11-28T22:30:27.021Z,14.23
2018-11-28T22:32:55.279Z,13.80
2018-11-28T22:35:23.416Z,12.90
2018-11-28T22:37:51.573Z,13.77
2018-11-28T22:40:22.602Z,13.17
2018-11-28T22:42:50.715Z,13.00
2018-11-28T22:45:20.244Z,12.60
2018-11-28T22:47:48.404Z,11.90
2018-11-28T22:50:16.603Z,11.10
2018-11-28T22:52:44.737Z,11.20
2018-11-28T22:55:14.175Z,12.13
2018-11-28T22:57:42.331Z,12.00
2018-11-28T23:00:17.518Z,9.93
2018-11-28T23:03:17.440Z,11.17
2018-11-28T23:05:47.906Z,13.57
2018-11-28T23:08:17.640Z,13.73
2018-11-28T23:10:46.199Z,9.80
2018-11-28T23:13:17.743Z,9.67
2018-11-28T23:15:46.083Z,9.77
2018-11-28T23:18:14.233Z,12.13
2018-11-28T23:20:42.904Z,11.30
2018-11-28T23:23:12.669Z,11.67
2018-11-28T23:25:40.821Z,10.40
2018-11-28T23:28:08.996Z,13.70
2018-11-28T23:30:37.813Z,9.93
2018-11-28T23:33:08.333Z,9.10
2018-11-28T23:35:35.601Z,10.03
2018-11-28T23:38:04.114Z,12.10
2018-11-28T23:40:32.247Z,10.93
2018-11-28T23:43:00.397Z,9.40
2018-11-28T23:45:28.610Z,10.40
2018-11-28T23:47:56.720Z,10.40
2018-11-28T23:50:25.302Z,10.67
2018-11-28T23:52:54.369Z,11.53
2018-11-28T23:55:24.490Z,9.37
2018-11-28T23:57:52.706Z,9.27
